Time;durP1;ratioP1;P1;durP2;ratioP2;P2;SDS_P1;SDS_P2;PMS_P1;PMS_P2;Temp;Humidity;BMP_temperature;BMP_pressure;BME280_temperature;BME280_humidity;BME280_pressure;Samples;Min_cycle;Max_cycle;Signal;HPM_P1;HPM_P2
2023/12/22 00:02:12;;;;;;;9.70;2.70;;;;;;;;;;4887321;29;20269;-85
2023/12/22 00:04:40;;;;;;;5.20;2.10;;;;;;;;;;4931175;28;20234;-85
2023/12/22 00:07:08;;;;;;;6.73;2.37;;;;;;;;;;4925562;28;20289;-87
2023/12/22 00:09:33;;;;;;;4.60;1.73;;;;;;;;;;4943365;28;20218;-83
2023/12/22 00:11:59;;;;;;;7.77;2.43;;;;;;;;;;4914130;28;20286;-87
2023/12/22 00:14:24;;;;;;;6.60;2.23;;;;;;;;;;4924925;29;20231;-84
2023/12/22 00:16:50;;;;;;;10.27;2.73;;;;;;;;;;4905086;29;20231;-87
2023/12/22 00:19:15;;;;;;;7.80;2.60;;;;;;;;;;4923394;28;20234;-86
2023/12/22 00:21:43;;;;;;;7.53;2.40;;;;;;;;;;4935994;29;20605;-86
2023/12/22 00:24:11;;;;;;;4.23;1.90;;;;;;;;;;4927977;28;20230;-86
2023/12/22 00:26:36;;;;;;;6.50;2.20;;;;;;;;;;4914121;28;20230;-84
2023/12/22 00:29:06;;;;;;;6.67;2.33;;;;;;;;;;4925214;28;20234;-86
2023/12/22 00:31:32;;;;;;;5.53;2.10;;;;;;;;;;4926407;28;20236;-88
2023/12/22 00:33:57;;;;;;;5.70;2.10;;;;;;;;;;4910215;28;20708;-87
2023/12/22 00:36:24;;;;;;;8.93;2.60;;;;;;;;;;4909484;28;20242;-86
2023/12/22 00:38:50;;;;;;;9.50;2.37;;;;;;;;;;4908487;28;20231;-85
2023/12/22 00:41:16;;;;;;;7.80;2.20;;;;;;;;;;4925354;28;20227;-86
2023/12/22 00:43:44;;;;;;;11.90;2.37;;;;;;;;;;4928455;29;20251;-86
2023/12/22 00:46:09;;;;;;;6.50;2.13;;;;;;;;;;4926729;28;20696;-87
2023/12/22 00:48:37;;;;;;;6.07;1.70;;;;;;;;;;4941869;28;20218;-86
2023/12/22 00:51:03;;;;;;;5.27;1.63;;;;;;;;;;4927659;28;20866;-87
2023/12/22 00:53:31;;;;;;;5.10;1.77;;;;;;;;;;4922028;29;20266;-86
2023/12/22 00:55:56;;;;;;;5.70;1.70;;;;;;;;;;4912792;28;20227;-82
2023/12/22 00:58:22;;;;;;;3.57;1.37;;;;;;;;;;4916352;29;20279;-83
2023/12/22 01:00:47;;;;;;;4.77;1.60;;;;;;;;;;4905712;28;20233;-85
2023/12/22 01:03:16;;;;;;;7.47;2.00;;;;;;;;;;4924960;28;20281;-87
2023/12/22 01:05:44;;;;;;;9.83;1.70;;;;;;;;;;4934783;29;20700;-88
2023/12/22 01:08:10;;;;;;;5.60;1.50;;;;;;;;;;4902820;28;20297;-89
2023/12/22 01:10:37;;;;;;;8.00;1.50;;;;;;;;;;4938827;28;20246;-88
2023/12/22 01:13:07;;;;;;;5.93;2.07;;;;;;;;;;4926286;29;20274;-86
2023/12/22 01:15:33;;;;;;;6.07;1.77;;;;;;;;;;4914198;28;20226;-87
2023/12/22 01:17:58;;;;;;;6.43;1.77;;;;;;;;;;4916059;29;20711;-88
2023/12/22 01:20:24;;;;;;;5.23;1.87;;;;;;;;;;4921894;28;20634;-84
2023/12/22 01:22:52;;;;;;;8.40;2.37;;;;;;;;;;4929495;28;20516;-87
2023/12/22 01:25:20;;;;;;;3.77;1.60;;;;;;;;;;4910719;28;20233;-84
2023/12/22 01:27:50;;;;;;;12.20;2.43;;;;;;;;;;4919359;29;20752;-87
2023/12/22 01:30:18;;;;;;;6.17;2.27;;;;;;;;;;4928793;28;20582;-86
2023/12/22 01:32:44;;;;;;;9.97;2.30;;;;;;;;;;4961684;28;20236;-85
2023/12/22 01:35:10;;;;;;;9.43;2.20;;;;;;;;;;4967918;28;20223;-88
2023/12/22 01:37:36;;;;;;;8.33;2.20;;;;;;;;;;4943908;29;20233;-86
2023/12/22 01:40:03;;;;;;;6.23;1.83;;;;;;;;;;4949421;28;20214;-88
2023/12/22 01:42:29;;;;;;;8.13;2.70;;;;;;;;;;4948413;28;20267;-86
2023/12/22 01:44:57;;;;;;;9.87;2.30;;;;;;;;;;4962811;28;20223;-87
2023/12/22 01:47:25;;;;;;;7.43;2.07;;;;;;;;;;4935758;28;20207;-84
2023/12/22 01:49:51;;;;;;;9.00;2.73;;;;;;;;;;4930099;28;20218;-83
2023/12/22 01:52:19;;;;;;;6.77;2.37;;;;;;;;;;4969753;28;20230;-88
2023/12/22 01:54:44;;;;;;;5.97;1.90;;;;;;;;;;4930066;28;20234;-83
2023/12/22 01:57:13;;;;;;;12.80;2.77;;;;;;;;;;4936287;28;20226;-82
2023/12/22 01:59:39;;;;;;;12.53;2.83;;;;;;;;;;4940869;28;20203;-85
2023/12/22 02:02:07;;;;;;;6.30;2.17;;;;;;;;;;4924402;28;20226;-83
2023/12/22 02:04:33;;;;;;;7.37;2.33;;;;;;;;;;4917336;29;20271;-84
2023/12/22 02:06:59;;;;;;;9.77;2.53;;;;;;;;;;4924594;29;20242;-85
2023/12/22 02:09:24;;;;;;;4.20;1.97;;;;;;;;;;4908619;28;20219;-85
2023/12/22 02:11:52;;;;;;;11.50;2.40;;;;;;;;;;4926756;28;20225;-87
2023/12/22 02:14:21;;;;;;;10.80;2.17;;;;;;;;;;4904303;28;20220;-83
2023/12/22 02:17:09;;;;;;;12.60;2.53;;;;;;;;;;4930223;28;20218;-83
2023/12/22 02:19:38;;;;;;;10.70;2.50;;;;;;;;;;4925900;28;20253;-83
2023/12/22 02:22:06;;;;;;;8.00;2.20;;;;;;;;;;4952422;28;20272;-85
2023/12/22 02:24:34;;;;;;;9.63;2.57;;;;;;;;;;4923583;28;20219;-85
2023/12/22 02:27:17;;;;;;;6.33;2.33;;;;;;;;;;4943074;28;20218;-85
2023/12/22 02:30:28;;;;;;;8.37;2.57;;;;;;;;;;4923635;29;20693;-83
2023/12/22 02:32:56;;;;;;;6.13;2.13;;;;;;;;;;4906379;29;20219;-86
2023/12/22 02:35:24;;;;;;;6.70;2.60;;;;;;;;;;4938001;28;20226;-88
2023/12/22 02:37:51;;;;;;;10.23;2.10;;;;;;;;;;4931647;28;20206;-83
2023/12/22 02:40:17;;;;;;;3.70;1.87;;;;;;;;;;4939644;28;20217;-83
2023/12/22 02:42:45;;;;;;;7.73;1.90;;;;;;;;;;4917706;29;20222;-86
2023/12/22 02:45:14;;;;;;;10.47;2.20;;;;;;;;;;4924506;28;20223;-85
2023/12/22 02:47:45;;;;;;;10.43;2.37;;;;;;;;;;4937697;28;20222;-86
2023/12/22 02:50:11;;;;;;;7.43;1.70;;;;;;;;;;4902790;28;20231;-83
2023/12/22 02:52:37;;;;;;;11.00;2.07;;;;;;;;;;4923608;29;20294;-82
2023/12/22 02:55:03;;;;;;;4.20;1.90;;;;;;;;;;4934628;28;20211;-84
2023/12/22 02:57:29;;;;;;;7.97;1.83;;;;;;;;;;4922331;28;20237;-86
2023/12/22 02:59:59;;;;;;;5.37;2.07;;;;;;;;;;4925224;29;20214;-87
2023/12/22 03:02:25;;;;;;;5.60;2.07;;;;;;;;;;4948079;28;20258;-87
2023/12/22 03:04:53;;;;;;;3.33;1.60;;;;;;;;;;4910946;29;20215;-84
2023/12/22 03:07:20;;;;;;;9.07;2.23;;;;;;;;;;4901943;28;20257;-86
2023/12/22 03:09:46;;;;;;;4.40;1.60;;;;;;;;;;4931963;29;20225;-88
2023/12/22 03:12:12;;;;;;;4.60;1.53;;;;;;;;;;4912434;29;20227;-83
2023/12/22 03:14:40;;;;;;;17.43;2.77;;;;;;;;;;4938450;28;20692;-87
2023/12/22 03:17:07;;;;;;;7.07;2.20;;;;;;;;;;4923030;29;20961;-86
2023/12/22 03:19:35;;;;;;;7.83;2.50;;;;;;;;;;4935760;28;20362;-84
2023/12/22 03:22:03;;;;;;;7.27;1.90;;;;;;;;;;4909423;28;20218;-87
2023/12/22 03:24:29;;;;;;;5.77;2.00;;;;;;;;;;4934232;28;20234;-84
2023/12/22 03:26:54;;;;;;;5.67;1.63;;;;;;;;;;4923951;28;20227;-86
2023/12/22 03:29:25;;;;;;;6.47;1.93;;;;;;;;;;4938517;28;20222;-86
2023/12/22 03:31:58;;;;;;;3.10;1.50;;;;;;;;;;4940945;28;20673;-84
2023/12/22 03:34:27;;;;;;;8.73;1.80;;;;;;;;;;4926229;28;20307;-87
2023/12/22 03:36:55;;;;;;;4.67;1.70;;;;;;;;;;4901578;29;20211;-86
2023/12/22 03:39:20;;;;;;;3.47;1.70;;;;;;;;;;4925779;28;20223;-86
2023/12/22 03:41:48;;;;;;;5.37;1.47;;;;;;;;;;4912260;29;20250;-87
2023/12/22 03:44:13;;;;;;;2.43;1.00;;;;;;;;;;4935216;29;20226;-85
2023/12/22 03:46:41;;;;;;;4.70;1.70;;;;;;;;;;4945759;28;20242;-83
2023/12/22 03:49:07;;;;;;;7.63;1.50;;;;;;;;;;4950125;28;20230;-84
2023/12/22 03:51:32;;;;;;;5.33;1.90;;;;;;;;;;4933488;28;20711;-85
2023/12/22 03:54:01;;;;;;;4.63;1.77;;;;;;;;;;4925945;28;20223;-83
2023/12/22 03:56:31;;;;;;;6.90;2.03;;;;;;;;;;4941247;28;20230;-84
2023/12/22 04:02:43;;;;;;;5.87;1.87;;;;;;;;;;4956856;28;20237;-84
2023/12/22 04:05:11;;;;;;;6.27;1.60;;;;;;;;;;4931612;29;20218;-84
2023/12/22 04:07:37;;;;;;;7.90;2.50;;;;;;;;;;4940148;28;20714;-88
2023/12/22 04:10:04;;;;;;;6.53;2.43;;;;;;;;;;4929534;29;20214;-86
2023/12/22 04:12:30;;;;;;;6.10;2.00;;;;;;;;;;4915826;28;20248;-86
2023/12/22 04:14:56;;;;;;;7.60;2.20;;;;;;;;;;4946188;28;20211;-84
2023/12/22 04:17:23;;;;;;;6.43;2.10;;;;;;;;;;4910028;28;20227;-84
2023/12/22 04:19:52;;;;;;;6.10;1.90;;;;;;;;;;4927235;29;20221;-84
2023/12/22 04:22:18;;;;;;;6.70;2.13;;;;;;;;;;4925706;28;20334;-87
2023/12/22 04:24:45;;;;;;;6.20;1.90;;;;;;;;;;4905230;28;20219;-84
2023/12/22 04:27:15;;;;;;;5.53;2.07;;;;;;;;;;4923091;28;20223;-83
2023/12/22 04:29:43;;;;;;;3.97;1.70;;;;;;;;;;4912891;28;20759;-83
2023/12/22 04:32:11;;;;;;;6.70;2.00;;;;;;;;;;4906686;28;20227;-86
2023/12/22 04:34:39;;;;;;;3.40;1.67;;;;;;;;;;4935713;28;20237;-85
2023/12/22 04:37:10;;;;;;;3.03;1.50;;;;;;;;;;4922451;29;20243;-83
2023/12/22 04:39:36;;;;;;;8.53;2.10;;;;;;;;;;4928223;28;20230;-84
2023/12/22 04:42:01;;;;;;;8.50;1.93;;;;;;;;;;4929153;28;20610;-86
2023/12/22 04:44:27;;;;;;;4.47;1.80;;;;;;;;;;4925188;28;20234;-88
2023/12/22 04:46:52;;;;;;;4.70;1.07;;;;;;;;;;4926360;29;20219;-85
2023/12/22 04:49:20;;;;;;;3.00;0.80;;;;;;;;;;4921106;28;20259;-87
2023/12/22 04:51:46;;;;;;;2.50;0.97;;;;;;;;;;4919648;29;20230;-83
2023/12/22 04:54:13;;;;;;;1.07;0.60;;;;;;;;;;4934071;29;20219;-85
2023/12/22 04:56:41;;;;;;;1.77;0.63;;;;;;;;;;4926825;29;20230;-87
2023/12/22 04:59:10;;;;;;;1.60;0.97;;;;;;;;;;4921331;29;20223;-85
2023/12/22 05:01:38;;;;;;;2.57;0.90;;;;;;;;;;4924618;29;20281;-86
2023/12/22 05:04:06;;;;;;;2.53;1.10;;;;;;;;;;4904560;28;20218;-80
2023/12/22 05:06:32;;;;;;;2.53;1.00;;;;;;;;;;4932155;28;20235;-82
2023/12/22 05:08:58;;;;;;;4.80;0.93;;;;;;;;;;4937594;28;20637;-83
2023/12/22 05:11:23;;;;;;;2.70;1.00;;;;;;;;;;4948318;28;20222;-82
2023/12/22 05:13:51;;;;;;;1.63;0.80;;;;;;;;;;4940419;28;20232;-84
2023/12/22 05:16:19;;;;;;;3.63;1.30;;;;;;;;;;4959366;28;20287;-85
2023/12/22 05:18:47;;;;;;;4.07;1.00;;;;;;;;;;4935300;28;20214;-82
2023/12/22 05:21:13;;;;;;;4.50;1.30;;;;;;;;;;4938515;29;20228;-86
2023/12/22 05:23:39;;;;;;;6.03;1.13;;;;;;;;;;4936159;28;20238;-85
2023/12/22 05:26:04;;;;;;;4.93;1.57;;;;;;;;;;4935149;28;20231;-84
2023/12/22 05:28:30;;;;;;;8.43;1.50;;;;;;;;;;4920825;29;20727;-89
2023/12/22 05:30:56;;;;;;;6.97;1.67;;;;;;;;;;4956446;28;20230;-86
2023/12/22 05:33:23;;;;;;;6.60;2.17;;;;;;;;;;4921281;28;20227;-86
2023/12/22 05:35:49;;;;;;;7.97;1.67;;;;;;;;;;4938016;28;20225;-85
2023/12/22 05:38:14;;;;;;;4.67;1.33;;;;;;;;;;4934254;29;20226;-87
2023/12/22 05:40:40;;;;;;;6.53;1.47;;;;;;;;;;4909808;29;20680;-87
2023/12/22 05:43:05;;;;;;;4.80;1.20;;;;;;;;;;4923159;29;20250;-86
2023/12/22 05:45:31;;;;;;;4.77;1.33;;;;;;;;;;4926126;28;20223;-88
2023/12/22 05:47:56;;;;;;;1.93;0.90;;;;;;;;;;4940105;29;20223;-86
2023/12/22 05:50:24;;;;;;;1.97;0.77;;;;;;;;;;4922520;28;20254;-87
2023/12/22 05:52:50;;;;;;;3.67;0.90;;;;;;;;;;4906238;28;20231;-88
2023/12/22 05:55:16;;;;;;;7.13;1.07;;;;;;;;;;4906256;28;20310;-87
2023/12/22 05:57:43;;;;;;;4.57;1.03;;;;;;;;;;4908008;28;21535;-84
2023/12/22 06:00:18;;;;;;;2.97;0.80;;;;;;;;;;4933941;28;20307;-89
2023/12/22 06:02:44;;;;;;;3.60;0.80;;;;;;;;;;4921865;29;20249;-86
2023/12/22 06:05:09;;;;;;;4.57;1.30;;;;;;;;;;4914106;29;20223;-89
2023/12/22 06:07:35;;;;;;;3.33;1.30;;;;;;;;;;4922036;29;20226;-89
2023/12/22 06:10:00;;;;;;;3.53;1.27;;;;;;;;;;4925474;29;20611;-87
2023/12/22 06:12:28;;;;;;;3.20;1.30;;;;;;;;;;4923369;29;21049;-86
2023/12/22 06:14:53;;;;;;;4.37;1.40;;;;;;;;;;4923690;29;20214;-89
2023/12/22 06:17:19;;;;;;;5.80;1.77;;;;;;;;;;4925846;28;20752;-88
2023/12/22 06:19:45;;;;;;;10.33;2.30;;;;;;;;;;4919779;28;20222;-85
2023/12/22 06:22:10;;;;;;;6.87;2.10;;;;;;;;;;4919766;29;20293;-87
2023/12/22 06:24:36;;;;;;;5.20;1.57;;;;;;;;;;4928293;29;20314;-86
2023/12/22 06:27:02;;;;;;;8.77;2.10;;;;;;;;;;4921338;28;20254;-86
2023/12/22 06:29:27;;;;;;;8.27;2.50;;;;;;;;;;4922301;28;20357;-85
2023/12/22 06:31:57;;;;;;;11.07;1.73;;;;;;;;;;4922301;28;20234;-85
2023/12/22 06:34:25;;;;;;;13.03;2.60;;;;;;;;;;4936785;28;20230;-86
2023/12/22 06:36:51;;;;;;;4.93;1.93;;;;;;;;;;4922773;28;20234;-85
2023/12/22 06:39:17;;;;;;;10.00;2.30;;;;;;;;;;4922172;28;20222;-87
2023/12/22 06:41:42;;;;;;;11.07;2.87;;;;;;;;;;4921091;29;20233;-88
2023/12/22 06:44:10;;;;;;;9.00;2.20;;;;;;;;;;4921954;29;20219;-88
2023/12/22 06:46:38;;;;;;;7.50;2.43;;;;;;;;;;4921606;28;20222;-83
2023/12/22 06:49:04;;;;;;;4.97;1.90;;;;;;;;;;4920319;29;20696;-82
2023/12/22 06:51:35;;;;;;;6.83;2.23;;;;;;;;;;4950134;28;20231;-86
2023/12/22 06:54:04;;;;;;;8.13;2.00;;;;;;;;;;4918889;28;20322;-87
2023/12/22 06:56:33;;;;;;;9.70;2.10;;;;;;;;;;4934641;28;20254;-87
2023/12/22 06:58:59;;;;;;;8.30;2.17;;;;;;;;;;4949220;28;20215;-84
2023/12/22 07:01:31;;;;;;;9.37;2.30;;;;;;;;;;4923056;29;20950;-85
2023/12/22 07:03:57;;;;;;;6.63;1.83;;;;;;;;;;4904028;29;20219;-87
2023/12/22 07:06:23;;;;;;;6.57;1.73;;;;;;;;;;4918653;28;20231;-87
2023/12/22 07:09:11;;;;;;;9.53;2.37;;;;;;;;;;4919609;28;20696;-86
2023/12/22 07:11:39;;;;;;;8.90;2.20;;;;;;;;;;4953102;28;20349;-84
2023/12/22 07:14:05;;;;;;;12.10;3.03;;;;;;;;;;4931071;29;20222;-83
2023/12/22 07:16:36;;;;;;;15.37;2.63;;;;;;;;;;4939603;29;20218;-85
2023/12/22 07:19:01;;;;;;;11.13;2.83;;;;;;;;;;4926108;29;20637;-86
2023/12/22 07:21:34;;;;;;;13.87;3.23;;;;;;;;;;4928843;29;20310;-85
2023/12/22 07:24:00;;;;;;;9.60;4.10;;;;;;;;;;4940935;29;20222;-86
2023/12/22 07:26:26;;;;;;;14.17;2.63;;;;;;;;;;4913216;28;20258;-87
2023/12/22 07:28:55;;;;;;;13.87;2.97;;;;;;;;;;4912495;28;20269;-87
2023/12/22 07:31:21;;;;;;;12.80;3.23;;;;;;;;;;4925991;28;20308;-87
2023/12/22 07:33:46;;;;;;;8.73;2.70;;;;;;;;;;4951960;28;20222;-85
2023/12/22 07:36:12;;;;;;;6.67;2.37;;;;;;;;;;4942266;28;20238;-85
2023/12/22 07:38:39;;;;;;;10.13;2.93;;;;;;;;;;4943669;28;20249;-87
2023/12/22 07:41:04;;;;;;;11.50;2.70;;;;;;;;;;4945490;28;20383;-85
2023/12/22 07:43:30;;;;;;;7.60;2.40;;;;;;;;;;4928076;28;21303;-82
2023/12/22 07:45:58;;;;;;;5.50;1.97;;;;;;;;;;4959858;28;20222;-86
2023/12/22 07:48:27;;;;;;;13.57;3.20;;;;;;;;;;4926452;28;20294;-85
2023/12/22 07:50:55;;;;;;;8.20;2.60;;;;;;;;;;4942192;28;20215;-85
2023/12/22 07:53:21;;;;;;;9.93;2.93;;;;;;;;;;4926497;28;20269;-85
2023/12/22 07:55:48;;;;;;;14.87;3.07;;;;;;;;;;4932663;28;20215;-86
2023/12/22 07:58:14;;;;;;;10.57;2.80;;;;;;;;;;4934755;28;20227;-83
2023/12/22 08:00:40;;;;;;;11.27;3.10;;;;;;;;;;4934429;28;20253;-85
2023/12/22 08:03:09;;;;;;;9.37;2.63;;;;;;;;;;4932830;28;20226;-85
2023/12/22 08:05:35;;;;;;;8.53;2.70;;;;;;;;;;4931499;29;20226;-85
2023/12/22 08:08:03;;;;;;;9.97;2.83;;;;;;;;;;4928503;28;20270;-85
2023/12/22 08:10:28;;;;;;;13.60;3.00;;;;;;;;;;4932011;28;20225;-87
2023/12/22 08:12:54;;;;;;;10.10;3.13;;;;;;;;;;4924888;28;20226;-83
2023/12/22 08:15:22;;;;;;;11.37;2.97;;;;;;;;;;4928073;29;20312;-85
2023/12/22 08:17:51;;;;;;;13.23;3.50;;;;;;;;;;4904317;28;20225;-88
2023/12/22 08:20:22;;;;;;;13.63;3.27;;;;;;;;;;4922900;28;20219;-89
2023/12/22 08:22:48;;;;;;;12.43;3.23;;;;;;;;;;4909249;28;20840;-85
2023/12/22 08:25:22;;;;;;;13.63;3.40;;;;;;;;;;4935684;28;20238;-84
2023/12/22 08:27:50;;;;;;;12.07;3.13;;;;;;;;;;4950414;28;20261;-86
2023/12/22 08:30:16;;;;;;;16.67;4.27;;;;;;;;;;4924637;28;20239;-87
2023/12/22 08:32:45;;;;;;;16.47;4.03;;;;;;;;;;4924073;28;20252;-81
2023/12/22 08:35:10;;;;;;;13.80;3.17;;;;;;;;;;4929006;28;20227;-88
2023/12/22 08:37:38;;;;;;;11.33;3.30;;;;;;;;;;4921982;29;20227;-85
2023/12/22 08:40:05;;;;;;;14.87;3.50;;;;;;;;;;4921450;29;20305;-85
2023/12/22 08:42:31;;;;;;;17.50;3.53;;;;;;;;;;4921143;28;20246;-86
2023/12/22 08:44:56;;;;;;;12.17;3.57;;;;;;;;;;4920180;29;20281;-88
2023/12/22 08:47:22;;;;;;;15.57;3.43;;;;;;;;;;4919922;28;20238;-87
2023/12/22 08:49:50;;;;;;;19.57;4.37;;;;;;;;;;4921646;28;20223;-83
2023/12/22 08:52:18;;;;;;;16.30;4.10;;;;;;;;;;4906198;28;20281;-84
2023/12/22 08:54:44;;;;;;;11.97;3.77;;;;;;;;;;4922492;28;20250;-82
2023/12/22 08:57:10;;;;;;;12.97;3.90;;;;;;;;;;4920689;28;20222;-85
2023/12/22 08:59:36;;;;;;;16.83;4.60;;;;;;;;;;4905743;29;20258;-86
2023/12/22 09:02:05;;;;;;;18.73;4.97;;;;;;;;;;4923265;28;20227;-84
2023/12/22 09:04:31;;;;;;;21.77;4.67;;;;;;;;;;4921754;28;20234;-88
2023/12/22 09:06:57;;;;;;;25.87;4.73;;;;;;;;;;4922881;28;20235;-85
2023/12/22 09:09:24;;;;;;;15.80;3.57;;;;;;;;;;4922787;28;20219;-84
2023/12/22 09:11:54;;;;;;;18.83;4.70;;;;;;;;;;4918214;28;20731;-85
2023/12/22 09:14:24;;;;;;;14.13;4.77;;;;;;;;;;4920902;28;20318;-89
2023/12/22 09:16:50;;;;;;;20.00;4.77;;;;;;;;;;4936803;28;20215;-83
2023/12/22 09:19:15;;;;;;;14.90;4.83;;;;;;;;;;4921428;28;21010;-87
2023/12/22 09:21:44;;;;;;;16.93;4.80;;;;;;;;;;4923371;29;20233;-86
2023/12/22 09:24:12;;;;;;;16.40;4.37;;;;;;;;;;4935857;29;20617;-88
2023/12/22 09:26:38;;;;;;;18.47;4.90;;;;;;;;;;4904613;29;20226;-85
2023/12/22 09:29:05;;;;;;;22.77;5.23;;;;;;;;;;4905922;28;20219;-86
2023/12/22 09:31:33;;;;;;;16.83;4.20;;;;;;;;;;4936835;28;20234;-87
2023/12/22 09:34:02;;;;;;;16.43;4.50;;;;;;;;;;4921295;28;20226;-87
2023/12/22 09:36:30;;;;;;;20.33;4.80;;;;;;;;;;4923509;29;20229;-86
2023/12/22 09:38:58;;;;;;;11.83;4.07;;;;;;;;;;4935733;28;20320;-84
2023/12/22 09:41:28;;;;;;;21.37;4.10;;;;;;;;;;4922765;29;20247;-86
2023/12/22 09:43:53;;;;;;;16.67;4.43;;;;;;;;;;4920231;28;20272;-83
2023/12/22 09:46:21;;;;;;;17.40;4.03;;;;;;;;;;4917147;29;20233;-84
2023/12/22 09:48:48;;;;;;;12.60;3.90;;;;;;;;;;4923582;29;20214;-86
2023/12/22 09:51:14;;;;;;;9.50;2.90;;;;;;;;;;4908375;28;20258;-87
2023/12/22 09:53:40;;;;;;;10.93;2.90;;;;;;;;;;4923694;29;20720;-84
2023/12/22 09:56:06;;;;;;;10.93;3.03;;;;;;;;;;4935191;28;20223;-87
2023/12/22 09:58:35;;;;;;;7.63;1.90;;;;;;;;;;4912284;28;20268;-88
2023/12/22 10:01:08;;;;;;;4.30;1.77;;;;;;;;;;4924894;28;20254;-86
2023/12/22 10:03:35;;;;;;;6.27;2.23;;;;;;;;;;4923175;28;20238;-87
2023/12/22 10:06:04;;;;;;;4.03;1.63;;;;;;;;;;4906477;29;20627;-87
2023/12/22 10:08:29;;;;;;;4.53;1.60;;;;;;;;;;4922655;29;20306;-88
2023/12/22 10:10:57;;;;;;;3.53;1.37;;;;;;;;;;4927853;28;20215;-85
2023/12/22 10:13:22;;;;;;;3.97;1.47;;;;;;;;;;4907511;29;21594;-88
2023/12/22 10:15:50;;;;;;;4.30;1.40;;;;;;;;;;4921988;29;20215;-84
2023/12/22 10:18:19;;;;;;;5.30;1.57;;;;;;;;;;4919457;29;20246;-85
2023/12/22 10:20:44;;;;;;;4.00;2.10;;;;;;;;;;4923043;29;20242;-86
2023/12/22 10:23:13;;;;;;;8.53;2.37;;;;;;;;;;4922701;28;20592;-84
2023/12/22 10:25:43;;;;;;;5.77;2.10;;;;;;;;;;4922073;28;20230;-88
2023/12/22 10:28:11;;;;;;;11.07;2.10;;;;;;;;;;4904016;28;20280;-86
2023/12/22 10:30:38;;;;;;;6.80;2.10;;;;;;;;;;4906933;29;20222;-86
2023/12/22 10:33:05;;;;;;;7.17;1.90;;;;;;;;;;4925633;28;20234;-89
2023/12/22 10:35:30;;;;;;;8.33;2.27;;;;;;;;;;4913575;28;20222;-86
2023/12/22 10:37:59;;;;;;;5.43;1.93;;;;;;;;;;4909455;28;20242;-84
2023/12/22 10:40:25;;;;;;;3.30;1.40;;;;;;;;;;4927973;28;20232;-86
2023/12/22 10:42:53;;;;;;;5.43;1.70;;;;;;;;;;4908932;28;20262;-86
2023/12/22 10:45:18;;;;;;;7.30;1.97;;;;;;;;;;4930752;28;20222;-87
2023/12/22 10:47:44;;;;;;;6.73;1.80;;;;;;;;;;4931924;28;20223;-86
2023/12/22 10:50:11;;;;;;;5.23;1.50;;;;;;;;;;4912232;28;20696;-88
2023/12/22 10:52:37;;;;;;;4.70;1.70;;;;;;;;;;4910239;29;20235;-87
2023/12/22 10:55:03;;;;;;;5.87;1.50;;;;;;;;;;4903062;29;20225;-88
2023/12/22 10:57:28;;;;;;;5.03;2.00;;;;;;;;;;4902893;28;20223;-85
2023/12/22 10:59:57;;;;;;;5.37;1.60;;;;;;;;;;4921636;29;20310;-86
2023/12/22 11:02:31;;;;;;;5.70;1.50;;;;;;;;;;4907212;29;20601;-86
2023/12/22 11:05:01;;;;;;;4.40;1.20;;;;;;;;;;4921587;28;20421;-89
2023/12/22 11:07:28;;;;;;;5.60;1.60;;;;;;;;;;4935095;29;20661;-88
2023/12/22 11:10:04;;;;;;;4.73;1.07;;;;;;;;;;4920669;29;20237;-84
2023/12/22 11:12:36;;;;;;;4.63;1.17;;;;;;;;;;4919938;29;20770;-87
2023/12/22 11:15:05;;;;;;;8.93;1.30;;;;;;;;;;4922322;28;20237;-86
2023/12/22 11:17:31;;;;;;;5.13;1.57;;;;;;;;;;4936232;28;20362;-87
2023/12/22 11:19:58;;;;;;;4.93;1.20;;;;;;;;;;4924609;29;20222;-87
2023/12/22 11:22:24;;;;;;;3.33;1.33;;;;;;;;;;4891815;28;20262;-88
2023/12/22 11:24:52;;;;;;;4.23;1.23;;;;;;;;;;4922451;28;21220;-89
2023/12/22 11:27:20;;;;;;;6.37;1.80;;;;;;;;;;4907771;29;20226;-89
2023/12/22 11:29:50;;;;;;;7.07;1.53;;;;;;;;;;4905835;28;20242;-86
2023/12/22 11:32:18;;;;;;;3.97;1.20;;;;;;;;;;4922559;28;20254;-90
2023/12/22 11:34:45;;;;;;;3.20;1.20;;;;;;;;;;4905925;28;20305;-87
2023/12/22 11:37:14;;;;;;;5.77;1.50;;;;;;;;;;4921618;28;20227;-87
2023/12/22 11:39:40;;;;;;;2.90;1.23;;;;;;;;;;4921414;29;20220;-88
2023/12/22 11:42:08;;;;;;;5.40;1.67;;;;;;;;;;4904527;28;20257;-86
2023/12/22 11:44:34;;;;;;;4.07;1.40;;;;;;;;;;4922613;29;20223;-86
2023/12/22 11:47:04;;;;;;;7.67;1.30;;;;;;;;;;4924292;29;20676;-87
2023/12/22 11:49:36;;;;;;;8.50;3.77;;;;;;;;;;4904719;29;20230;-89
2023/12/22 11:52:15;;;;;;;6.57;3.23;;;;;;;;;;4913500;28;20254;-89
2023/12/22 11:54:47;;;;;;;6.13;2.30;;;;;;;;;;4900223;29;20337;-86
2023/12/22 11:57:27;;;;;;;6.03;1.87;;;;;;;;;;4940559;28;20269;-86
2023/12/22 11:59:55;;;;;;;9.00;2.00;;;;;;;;;;4956601;28;20276;-86
2023/12/22 12:02:21;;;;;;;6.97;1.70;;;;;;;;;;4892057;28;20731;-86
2023/12/22 12:04:53;;;;;;;5.10;1.70;;;;;;;;;;4896165;29;20333;-86
2023/12/22 12:07:40;;;;;;;9.30;2.00;;;;;;;;;;4932350;28;20235;-87
2023/12/22 12:10:07;;;;;;;5.33;1.40;;;;;;;;;;4925908;28;20222;-86
2023/12/22 12:12:36;;;;;;;6.50;1.77;;;;;;;;;;4925388;29;20232;-86
2023/12/22 12:15:16;;;;;;;6.70;1.70;;;;;;;;;;4909048;29;20226;-88
2023/12/22 12:17:42;;;;;;;6.00;2.00;;;;;;;;;;4907386;28;20215;-86
2023/12/22 12:20:09;;;;;;;4.67;1.87;;;;;;;;;;4923755;28;20283;-84
2023/12/22 12:22:38;;;;;;;6.60;1.50;;;;;;;;;;4911280;28;20845;-86
2023/12/22 12:25:10;;;;;;;6.23;1.57;;;;;;;;;;4910578;28;20215;-86
2023/12/22 12:27:39;;;;;;;5.60;1.60;;;;;;;;;;4926781;29;20665;-88
2023/12/22 12:30:13;;;;;;;4.80;1.80;;;;;;;;;;4924178;28;20302;-87
2023/12/22 12:32:41;;;;;;;5.43;1.80;;;;;;;;;;4947095;28;20242;-86
2023/12/22 12:35:08;;;;;;;8.50;2.07;;;;;;;;;;4925906;28;20285;-87
2023/12/22 12:37:36;;;;;;;4.60;1.43;;;;;;;;;;4924924;29;20235;-86
2023/12/22 12:40:03;;;;;;;6.43;1.50;;;;;;;;;;4910088;29;20322;-84
2023/12/22 12:42:29;;;;;;;5.87;1.90;;;;;;;;;;4911241;28;20296;-87
2023/12/22 12:44:55;;;;;;;8.37;2.47;;;;;;;;;;4927568;28;20222;-88
2023/12/22 12:47:20;;;;;;;5.57;2.07;;;;;;;;;;4924758;28;20532;-87
2023/12/22 12:49:46;;;;;;;10.27;2.60;;;;;;;;;;4928020;28;20234;-86
2023/12/22 12:52:13;;;;;;;10.83;2.33;;;;;;;;;;4923640;29;20226;-88
2023/12/22 12:54:43;;;;;;;5.70;1.93;;;;;;;;;;4913063;29;20532;-88
2023/12/22 12:57:19;;;;;;;7.63;2.63;;;;;;;;;;4926832;28;20215;-87
2023/12/22 12:59:48;;;;;;;9.43;2.80;;;;;;;;;;4938967;29;20218;-89
2023/12/22 13:02:17;;;;;;;8.20;1.80;;;;;;;;;;4937068;29;20211;-87
2023/12/22 13:04:42;;;;;;;10.10;2.50;;;;;;;;;;4945592;28;20313;-89
2023/12/22 13:07:12;;;;;;;4.37;1.80;;;;;;;;;;4939617;29;20262;-86
2023/12/22 13:09:41;;;;;;;15.30;2.70;;;;;;;;;;4917719;28;20219;-77
2023/12/22 13:12:08;;;;;;;13.33;7.37;;;;;;;;;;4928422;28;20632;-79
2023/12/22 13:14:33;;;;;;;13.40;3.73;;;;;;;;;;4930213;28;20230;-79
2023/12/22 13:16:59;;;;;;;5.90;2.23;;;;;;;;;;4914771;28;20219;-78
2023/12/22 13:19:25;;;;;;;9.13;2.50;;;;;;;;;;4915551;28;20632;-79
2023/12/22 13:21:53;;;;;;;4.07;1.77;;;;;;;;;;4899707;28;20268;-78
2023/12/22 13:24:19;;;;;;;4.80;2.07;;;;;;;;;;4914775;28;20219;-80
2023/12/22 13:26:44;;;;;;;6.10;1.80;;;;;;;;;;4899560;28;20261;-79
2023/12/22 13:29:10;;;;;;;3.30;1.60;;;;;;;;;;4914232;28;20219;-79
2023/12/22 13:31:37;;;;;;;8.23;2.20;;;;;;;;;;4917467;28;20222;-79
2023/12/22 13:34:03;;;;;;;4.60;2.10;;;;;;;;;;4900722;28;20223;-80
2023/12/22 13:36:36;;;;;;;2.73;1.53;;;;;;;;;;4914835;28;20223;-78
2023/12/22 13:39:04;;;;;;;3.77;1.63;;;;;;;;;;4915493;29;20227;-79
2023/12/22 13:41:44;;;;;;;3.47;1.87;;;;;;;;;;4915615;28;20577;-81
2023/12/22 13:44:12;;;;;;;6.10;2.00;;;;;;;;;;4931544;28;20218;-79
2023/12/22 13:46:40;;;;;;;5.87;2.20;;;;;;;;;;4919078;28;20226;-79
2023/12/22 13:49:07;;;;;;;6.03;1.80;;;;;;;;;;4918272;28;20227;-78
2023/12/22 13:51:41;;;;;;;3.77;1.83;;;;;;;;;;4899376;28;20231;-79
2023/12/22 13:54:09;;;;;;;1.73;1.07;;;;;;;;;;4945107;28;20218;-78
2023/12/22 13:56:36;;;;;;;1.83;0.97;;;;;;;;;;4932613;28;20233;-80
2023/12/22 13:59:02;;;;;;;4.10;1.27;;;;;;;;;;4951010;28;20298;-78
2023/12/22 14:01:30;;;;;;;3.67;1.50;;;;;;;;;;4949316;28;20227;-80
2023/12/22 14:03:57;;;;;;;2.83;1.30;;;;;;;;;;4914513;28;20225;-79
2023/12/22 14:06:30;;;;;;;6.17;1.37;;;;;;;;;;4915144;28;20575;-79
2023/12/22 14:08:55;;;;;;;3.27;1.10;;;;;;;;;;4916162;28;20226;-81
2023/12/22 14:11:21;;;;;;;1.40;0.70;;;;;;;;;;4915042;28;20227;-80
2023/12/22 14:13:47;;;;;;;1.60;1.17;;;;;;;;;;4914685;28;20218;-78
2023/12/22 14:16:15;;;;;;;1.10;0.53;;;;;;;;;;4928711;28;20615;-77
2023/12/22 14:18:46;;;;;;;5.07;2.80;;;;;;;;;;4896620;28;20305;-79
2023/12/22 14:21:11;;;;;;;1.63;0.80;;;;;;;;;;4931275;28;20227;-79
2023/12/22 14:23:37;;;;;;;1.80;0.90;;;;;;;;;;4899770;29;20226;-77
2023/12/22 14:26:03;;;;;;;1.30;1.20;;;;;;;;;;4916124;28;20282;-79
2023/12/22 14:28:28;;;;;;;2.53;1.17;;;;;;;;;;4930402;28;20228;-78
2023/12/22 14:30:54;;;;;;;0.87;0.50;;;;;;;;;;4914382;28;20660;-78
2023/12/22 14:33:19;;;;;;;3.07;0.67;;;;;;;;;;4918760;28;20219;-76
2023/12/22 14:35:45;;;;;;;1.77;0.93;;;;;;;;;;4916522;28;20238;-79
2023/12/22 14:38:10;;;;;;;1.73;0.70;;;;;;;;;;4948774;28;20219;-77
2023/12/22 14:40:36;;;;;;;1.30;0.90;;;;;;;;;;4915261;28;20622;-79
2023/12/22 14:43:02;;;;;;;2.40;0.60;;;;;;;;;;4916103;28;20381;-77
2023/12/22 14:45:28;;;;;;;1.80;0.80;;;;;;;;;;4929907;29;21646;-77
2023/12/22 14:47:55;;;;;;;1.20;0.90;;;;;;;;;;4932089;28;20226;-76